Search for airport 
image banner adimage banner adimage banner ad
image banner ad

2PS6 - Brandywine Hospital

Located in Coatesville, United States

ICAO - 2PS6, IATA -

Data provided by Airmate  

General information

Coordinates: N40°0'37" W75°47'4"
Elevation is 565 feet MSL.
Magnetic variation is -11° East
View others Airports in Pennsylvania

Operational data

Special qualification required
Current time UTC:
Current local time:
Weather at : KMQS - Chester County G O Carlson ( 8 km )
METAR: KMQS 091555Z AUTO 00000KT 10SM CLR 10/03 A3011 RMK AO2
View NOTAMs / SUP AIP / TFR affecting this airport [VIEW]
Communications frequencies: [VIEW]

Runways:

Airport contact information

Address: Coatesville United States

Satellite view of 2PS6